createdAt,value
2022-09-11T00:01:28.542Z,13.32
2022-09-11T00:03:56.490Z,12.95
2022-09-11T00:06:29.761Z,15.57
2022-09-11T00:09:00.449Z,14.00
2022-09-11T00:11:28.958Z,14.20
2022-09-11T00:13:56.570Z,16.45
2022-09-11T00:16:31.732Z,15.77
2022-09-11T00:18:59.869Z,14.10
2022-09-11T00:21:27.727Z,16.45
2022-09-11T00:23:55.147Z,14.32
2022-09-11T00:26:24.381Z,15.10
2022-09-11T00:28:52.467Z,16.20
2022-09-11T00:31:22.086Z,17.75
2022-09-11T00:33:49.643Z,17.67
2022-09-11T00:36:18.598Z,18.13
2022-09-11T00:38:46.466Z,16.55
2022-09-11T00:41:15.498Z,18.15
2022-09-11T00:43:57.799Z,13.63
2022-09-11T00:46:26.708Z,15.48
2022-09-11T00:48:54.566Z,15.90
2022-09-11T00:51:24.788Z,19.27
2022-09-11T00:53:53.336Z,20.43
2022-09-11T00:56:21.672Z,24.27
2022-09-11T00:58:49.789Z,19.83
2022-09-11T01:01:17.034Z,20.95
2022-09-11T01:03:44.240Z,20.73
2022-09-11T01:06:11.716Z,23.88
2022-09-11T01:08:39.162Z,20.85
2022-09-11T01:11:09.033Z,21.48
2022-09-11T01:13:42.160Z,20.55
2022-09-11T01:16:09.457Z,26.20
2022-09-11T01:18:41.157Z,24.42
2022-09-11T01:21:17.184Z,24.25
2022-09-11T01:24:04.278Z,24.85
2022-09-11T01:26:38.969Z,25.77
2022-09-11T01:29:08.916Z,22.05
2022-09-11T01:31:41.795Z,20.48
2022-09-11T01:34:24.013Z,24.25
2022-09-11T01:36:57.441Z,24.48
2022-09-11T01:39:29.493Z,25.42
2022-09-11T01:42:02.711Z,24.08
2022-09-11T01:44:50.078Z,27.55
2022-09-11T01:47:18.139Z,28.73
2022-09-11T01:49:59.086Z,27.50
2022-09-11T01:52:34.103Z,28.15
2022-09-11T01:55:02.723Z,27.88
2022-09-11T01:57:37.670Z,32.00
2022-09-11T02:00:08.867Z,29.88
2022-09-11T02:05:07.250Z,28.33
2022-09-11T02:07:49.732Z,26.25
2022-09-11T02:10:19.150Z,27.13
2022-09-11T02:12:51.841Z,26.48
2022-09-11T02:15:19.463Z,29.08
2022-09-11T02:17:46.576Z,29.35
2022-09-11T02:20:13.719Z,28.45
2022-09-11T02:22:41.023Z,24.23
2022-09-11T02:25:08.401Z,28.77
2022-09-11T02:27:37.044Z,23.98
2022-09-11T02:30:04.406Z,25.13
2022-09-11T02:32:32.482Z,25.02
2022-09-11T02:34:59.909Z,25.42
2022-09-11T02:37:36.457Z,25.70
2022-09-11T02:40:22.347Z,31.48
2022-09-11T02:43:12.089Z,24.90
2022-09-11T02:45:42.843Z,26.27
2022-09-11T02:48:27.332Z,27.25
2022-09-11T02:51:00.300Z,24.45
2022-09-11T02:53:42.817Z,24.50
2022-09-11T02:56:17.950Z,22.23
2022-09-11T02:58:50.621Z,21.35
2022-09-11T03:01:18.466Z,24.90
2022-09-11T03:03:46.575Z,25.75
2022-09-11T03:06:29.655Z,23.63
2022-09-11T03:08:56.773Z,25.23
2022-09-11T03:11:23.887Z,22.05
2022-09-11T03:13:51.161Z,22.27
2022-09-11T03:16:19.117Z,19.88
2022-09-11T03:18:46.270Z,23.05
2022-09-11T03:21:13.496Z,22.05
2022-09-11T03:23:40.833Z,23.58
2022-09-11T03:26:08.051Z,26.02
2022-09-11T03:28:35.412Z,21.00
2022-09-11T03:31:02.794Z,23.52
2022-09-11T03:33:30.485Z,17.10
2022-09-11T03:35:57.798Z,14.18
2022-09-11T03:38:24.917Z,6.53
2022-09-11T03:40:52.031Z,5.13
2022-09-11T03:43:19.553Z,3.60
2022-09-11T03:45:49.989Z,4.78
2022-09-11T03:48:17.461Z,4.35
2022-09-11T03:50:47.937Z,4.50
2022-09-11T03:53:15.741Z,5.50
2022-09-11T03:55:42.933Z,5.88
2022-09-11T03:58:10.298Z,6.43
2022-09-11T04:00:37.659Z,6.65
2022-09-11T04:03:05.157Z,7.40
2022-09-11T04:05:32.409Z,5.60
2022-09-11T04:07:59.529Z,6.30
2022-09-11T04:10:26.686Z,6.90
2022-09-11T04:12:53.941Z,7.40
2022-09-11T04:15:21.864Z,7.07
2022-09-11T04:17:49.202Z,7.95
2022-09-11T04:20:16.998Z,7.47
2022-09-11T04:22:44.112Z,7.43
2022-09-11T04:25:12.397Z,8.18
2022-09-11T04:27:39.776Z,6.05
2022-09-11T04:30:07.346Z,9.13
2022-09-11T04:32:34.484Z,8.50
2022-09-11T04:35:02.021Z,6.15
2022-09-11T04:37:30.019Z,6.82
2022-09-11T04:39:57.186Z,9.52
2022-09-11T04:42:24.469Z,9.40
2022-09-11T04:44:51.589Z,6.50
2022-09-11T04:47:18.741Z,7.63
2022-09-11T04:49:46.993Z,12.60
2022-09-11T04:52:15.343Z,6.47
2022-09-11T04:54:42.565Z,7.63
2022-09-11T04:57:09.841Z,7.15
2022-09-11T04:59:36.975Z,5.50
2022-09-11T05:02:04.186Z,5.75
2022-09-11T05:04:31.549Z,5.80
2022-09-11T05:06:58.680Z,5.75
2022-09-11T05:09:27.621Z,4.85
2022-09-11T05:11:54.896Z,6.20
2022-09-11T05:14:22.517Z,5.88
2022-09-11T05:16:49.684Z,5.97
2022-09-11T05:19:16.924Z,4.18
2022-09-11T05:21:44.050Z,4.00
2022-09-11T05:24:11.519Z,4.68
2022-09-11T05:26:38.829Z,4.93
2022-09-11T05:29:10.185Z,5.82
2022-09-11T05:31:37.416Z,7.00
2022-09-11T05:34:05.285Z,7.05
2022-09-11T05:36:33.369Z,6.93
2022-09-11T05:39:00.805Z,7.47
2022-09-11T05:41:28.415Z,4.38
2022-09-11T05:43:55.652Z,6.00
2022-09-11T05:46:22.801Z,5.63
2022-09-11T05:48:50.045Z,4.30
2022-09-11T05:51:21.461Z,4.47
2022-09-11T05:53:50.548Z,4.43
2022-09-11T05:56:19.069Z,4.28
2022-09-11T05:58:46.657Z,3.85
2022-09-11T06:01:15.368Z,4.53
2022-09-11T06:03:42.647Z,3.53
2022-09-11T06:06:11.558Z,3.35
2022-09-11T06:08:39.494Z,2.88
2022-09-11T06:11:07.645Z,3.97
2022-09-11T06:13:44.587Z,3.00
2022-09-11T06:16:17.311Z,3.40
2022-09-11T06:18:48.827Z,2.78
2022-09-11T06:21:19.142Z,2.95
2022-09-11T06:23:46.901Z,3.97
2022-09-11T06:26:15.357Z,4.78
2022-09-11T06:28:42.791Z,4.32
2022-09-11T06:31:16.465Z,3.10
2022-09-11T06:33:43.999Z,3.30
2022-09-11T06:36:12.366Z,2.55
2022-09-11T06:38:39.592Z,3.15
2022-09-11T06:41:07.815Z,2.38
2022-09-11T06:43:34.932Z,2.83
2022-09-11T06:46:06.215Z,2.30
2022-09-11T06:48:33.373Z,3.17
2022-09-11T06:51:04.492Z,2.30
2022-09-11T06:56:02.338Z,2.55
2022-09-11T06:58:29.765Z,2.53
2022-09-11T07:00:59.985Z,2.70
2022-09-11T07:03:27.145Z,2.27
2022-09-11T07:05:54.261Z,2.72
2022-09-11T07:08:24.900Z,2.78
2022-09-11T07:10:52.250Z,5.97
2022-09-11T07:13:19.519Z,2.70
2022-09-11T07:15:49.345Z,3.80
2022-09-11T07:18:16.624Z,2.40
2022-09-11T07:20:43.759Z,3.03
2022-09-11T07:23:11.021Z,3.28
2022-09-11T07:25:41.137Z,2.75
2022-09-11T07:28:08.270Z,2.80
2022-09-11T07:30:35.982Z,2.92
2022-09-11T07:33:03.117Z,2.70
2022-09-11T07:35:30.974Z,2.72
2022-09-11T07:37:59.323Z,3.67
2022-09-11T07:40:26.439Z,3.53
2022-09-11T07:42:54.039Z,3.45
2022-09-11T07:45:22.805Z,2.45
2022-09-11T07:47:50.150Z,2.50
2022-09-11T07:50:18.098Z,3.25
2022-09-11T07:52:45.425Z,2.53
2022-09-11T07:55:13.354Z,4.97
2022-09-11T07:57:40.481Z,2.63
2022-09-11T08:00:08.291Z,2.97
2022-09-11T08:02:35.450Z,3.38
2022-09-11T08:05:02.620Z,3.20
2022-09-11T08:07:31.143Z,4.30
2022-09-11T08:10:23.363Z,3.05
2022-09-11T08:12:47.717Z,3.08
2022-09-11T08:15:14.925Z,3.25
2022-09-11T08:17:42.053Z,3.13
2022-09-11T08:20:09.667Z,4.22
2022-09-11T08:22:36.775Z,4.32
2022-09-11T08:25:03.964Z,3.38
2022-09-11T08:27:31.795Z,4.35
2022-09-11T08:29:58.939Z,3.35
2022-09-11T08:32:26.044Z,2.85
2022-09-11T08:34:53.493Z,3.33
2022-09-11T08:37:20.603Z,3.20
2022-09-11T08:39:47.779Z,3.65
2022-09-11T08:42:16.273Z,3.72
2022-09-11T08:44:49.477Z,3.33
2022-09-11T08:47:19.234Z,3.53
2022-09-11T08:49:49.766Z,3.40
2022-09-11T08:52:17.017Z,3.35
2022-09-11T08:54:47.646Z,3.45
2022-09-11T08:57:16.668Z,3.85
2022-09-11T08:59:59.009Z,3.35
2022-09-11T09:02:26.126Z,3.58
2022-09-11T09:05:11.244Z,3.38
2022-09-11T09:07:44.965Z,3.15
2022-09-11T09:10:25.163Z,4.80
2022-09-11T09:12:58.409Z,3.65
2022-09-11T09:15:45.959Z,3.90
2022-09-11T09:18:20.153Z,3.85
2022-09-11T09:20:53.825Z,3.75
2022-09-11T09:23:23.710Z,4.35
2022-09-11T09:25:55.190Z,5.88
2022-09-11T09:28:35.197Z,4.63
2022-09-11T09:31:05.599Z,4.07
2022-09-11T09:33:39.355Z,4.22
2022-09-11T09:36:17.611Z,4.65
2022-09-11T09:38:46.478Z,5.60
2022-09-11T09:41:43.770Z,4.68
2022-09-11T09:44:26.543Z,4.50
2022-09-11T09:46:55.665Z,5.30
2022-09-11T09:49:25.494Z,6.88
2022-09-11T09:51:55.597Z,5.13
2022-09-11T09:54:26.556Z,6.28
2022-09-11T09:56:57.530Z,5.43
2022-09-11T09:59:31.083Z,5.72
2022-09-11T10:01:59.378Z,6.72
2022-09-11T10:04:27.822Z,6.57
2022-09-11T10:07:05.822Z,7.25
2022-09-11T10:09:33.496Z,7.00
2022-09-11T10:12:06.436Z,7.20
2022-09-11T10:14:51.488Z,7.28
2022-09-11T10:17:23.421Z,6.22
2022-09-11T10:19:51.023Z,8.30
2022-09-11T10:22:29.304Z,7.30
2022-09-11T10:25:03.221Z,6.32
2022-09-11T10:27:32.041Z,6.72
2022-09-11T10:30:00.508Z,7.50
2022-09-11T10:32:28.914Z,7.32
2022-09-11T10:34:57.044Z,7.57
2022-09-11T10:37:25.945Z,7.20
2022-09-11T10:39:54.068Z,7.88
2022-09-11T10:42:27.497Z,6.82
2022-09-11T10:44:57.393Z,7.65
2022-09-11T10:47:26.214Z,5.97
2022-09-11T10:50:12.059Z,8.30
2022-09-11T10:52:51.257Z,6.78
2022-09-11T10:55:19.505Z,6.13
2022-09-11T10:57:48.467Z,6.78
2022-09-11T11:00:21.663Z,10.25
2022-09-11T11:02:48.942Z,7.38
2022-09-11T11:05:17.076Z,7.88
2022-09-11T11:08:04.865Z,6.10
2022-09-11T11:10:39.221Z,8.80
2022-09-11T11:13:14.694Z,5.78
2022-09-11T11:15:54.180Z,6.82
2022-09-11T11:18:27.143Z,7.05
2022-09-11T11:21:04.223Z,6.68
2022-09-11T11:23:40.680Z,5.93
2022-09-11T11:26:19.942Z,6.15
2022-09-11T11:28:56.633Z,6.13
2022-09-11T11:31:23.851Z,6.13
2022-09-11T11:33:53.758Z,6.28
2022-09-11T11:36:21.019Z,6.90
2022-09-11T11:39:08.806Z,8.48
2022-09-11T11:41:45.655Z,5.63
2022-09-11T11:44:15.995Z,5.53
2022-09-11T11:46:49.583Z,6.95
2022-09-11T11:49:23.019Z,6.57
2022-09-11T11:51:57.348Z,6.43
2022-09-11T11:54:26.279Z,5.30
2022-09-11T11:57:13.812Z,5.50
2022-09-11T11:59:46.776Z,6.10
2022-09-11T12:02:21.367Z,6.00
2022-09-11T12:05:01.066Z,6.38
2022-09-11T12:07:31.196Z,6.22
2022-09-11T12:09:58.938Z,5.70
2022-09-11T12:12:28.474Z,6.47
2022-09-11T12:15:04.671Z,5.85
2022-09-11T12:17:32.788Z,5.88
2022-09-11T12:20:12.216Z,5.40
2022-09-11T12:22:46.847Z,7.40
2022-09-11T12:25:20.141Z,6.68
2022-09-11T12:27:48.656Z,6.68
2022-09-11T12:30:18.652Z,8.50
2022-09-11T12:32:46.914Z,7.53
2022-09-11T12:35:26.505Z,7.35
2022-09-11T12:38:09.186Z,6.53
2022-09-11T12:40:46.764Z,8.10
2022-09-11T12:43:20.781Z,6.10
2022-09-11T12:45:48.456Z,8.30
2022-09-11T12:48:17.512Z,7.22
2022-09-11T12:50:51.735Z,6.15
2022-09-11T12:53:23.582Z,6.72
2022-09-11T12:55:53.922Z,7.65
2022-09-11T12:58:21.028Z,7.55
2022-09-11T13:00:49.611Z,7.15
2022-09-11T13:03:28.058Z,7.55
2022-09-11T13:05:57.642Z,8.02
2022-09-11T13:08:26.606Z,7.63
2022-09-11T13:10:54.163Z,6.60
2022-09-11T13:13:37.429Z,6.60
2022-09-11T13:16:37.239Z,7.72
2022-09-11T13:19:10.467Z,7.00
2022-09-11T13:21:39.141Z,6.60
2022-09-11T13:24:23.057Z,7.28
2022-09-11T13:26:55.365Z,7.63
2022-09-11T13:29:26.601Z,6.55
2022-09-11T13:31:55.845Z,7.60
2022-09-11T13:34:24.295Z,6.80
2022-09-11T13:36:56.371Z,8.93
2022-09-11T13:39:24.983Z,9.13
2022-09-11T13:41:56.039Z,9.57
2022-09-11T13:46:53.279Z,10.32
2022-09-11T13:49:37.373Z,11.93
2022-09-11T13:52:06.477Z,10.00
2022-09-11T13:54:43.807Z,9.07
2022-09-11T13:57:14.264Z,9.65
2022-09-11T13:59:48.138Z,11.25
2022-09-11T14:02:31.223Z,9.98
2022-09-11T14:05:10.637Z,9.30
2022-09-11T14:07:58.720Z,8.15
2022-09-11T14:10:30.959Z,8.63
2022-09-11T14:13:05.565Z,9.48
2022-09-11T14:15:37.900Z,9.32
2022-09-11T14:18:06.021Z,8.63
2022-09-11T14:20:33.790Z,9.27
2022-09-11T14:23:04.866Z,8.98
2022-09-11T14:28:00.731Z,9.40
2022-09-11T14:30:36.139Z,8.55
2022-09-11T14:33:22.752Z,10.32
2022-09-11T14:35:50.555Z,9.07
2022-09-11T14:38:19.350Z,9.63
2022-09-11T14:40:52.263Z,11.05
2022-09-11T14:43:24.229Z,9.45
2022-09-11T14:45:54.427Z,9.88
2022-09-11T14:48:21.757Z,10.43
2022-09-11T14:50:49.037Z,9.98
2022-09-11T14:53:18.882Z,10.20
2022-09-11T14:55:46.102Z,10.55
2022-09-11T14:58:13.452Z,9.27
2022-09-11T15:00:41.205Z,10.15
2022-09-11T15:03:08.362Z,9.60
2022-09-11T15:05:36.827Z,11.27
2022-09-11T15:08:05.200Z,13.82
2022-09-11T15:10:33.013Z,10.00
2022-09-11T15:13:01.377Z,10.02
2022-09-11T15:15:28.638Z,10.82
2022-09-11T15:17:56.192Z,9.52
2022-09-11T15:20:25.435Z,10.75
2022-09-11T15:22:52.763Z,10.65
2022-09-11T15:25:19.936Z,9.90
2022-09-11T15:27:49.612Z,11.93
2022-09-11T15:30:17.545Z,10.73
2022-09-11T15:32:44.919Z,11.05
2022-09-11T15:35:12.787Z,11.55
2022-09-11T15:37:42.593Z,11.15
2022-09-11T15:40:10.083Z,11.15
2022-09-11T15:42:39.638Z,11.23
2022-09-11T15:45:08.061Z,13.10
2022-09-11T15:47:35.220Z,12.38
2022-09-11T15:50:02.354Z,13.50
2022-09-11T15:52:29.691Z,15.00
2022-09-11T15:54:57.311Z,14.98
2022-09-11T15:57:25.492Z,18.50
2022-09-11T15:59:52.897Z,18.75
2022-09-11T16:02:21.589Z,19.85
2022-09-11T16:04:53.439Z,22.67
2022-09-11T16:07:21.077Z,24.27
2022-09-11T16:09:48.300Z,25.10
2022-09-11T16:12:15.706Z,24.30
2022-09-11T16:14:43.773Z,23.95
2022-09-11T16:17:11.582Z,23.65
2022-09-11T16:19:38.862Z,21.70
2022-09-11T16:22:07.173Z,23.83
2022-09-11T16:24:37.254Z,21.90
2022-09-11T16:27:05.897Z,19.40
2022-09-11T16:29:59.048Z,19.20
2022-09-11T16:32:28.234Z,17.38
2022-09-11T16:34:57.905Z,18.63
2022-09-11T16:37:25.831Z,16.85
2022-09-11T16:39:53.096Z,20.30
2022-09-11T16:42:21.361Z,22.67
2022-09-11T16:44:49.402Z,19.67
2022-09-11T16:47:16.886Z,20.45
2022-09-11T16:52:35.171Z,20.77
2022-09-11T16:55:02.524Z,20.30
2022-09-11T16:57:29.882Z,19.27
2022-09-11T16:59:57.234Z,20.98
2022-09-11T17:02:24.565Z,22.67
2022-09-11T17:04:51.666Z,23.38
2022-09-11T17:07:19.010Z,23.20
2022-09-11T17:09:47.306Z,21.52
2022-09-11T17:12:17.896Z,22.83
2022-09-11T17:14:48.359Z,18.80
2022-09-11T17:17:15.502Z,20.02
2022-09-11T17:19:42.640Z,21.08
2022-09-11T17:22:10.486Z,19.00
2022-09-11T17:24:38.687Z,18.30
2022-09-11T17:27:06.006Z,18.45
2022-09-11T17:29:33.243Z,17.55
2022-09-11T17:32:26.078Z,15.40
2022-09-11T17:34:48.350Z,16.42
2022-09-11T17:37:15.688Z,16.45
2022-09-11T17:39:43.283Z,17.65
2022-09-11T17:42:13.138Z,15.98
2022-09-11T17:44:43.507Z,17.00
2022-09-11T17:47:10.790Z,14.55
2022-09-11T17:49:37.944Z,14.15
2022-09-11T17:52:05.167Z,15.38
2022-09-11T17:54:32.425Z,13.98
2022-09-11T17:56:59.550Z,16.23
2022-09-11T17:59:26.746Z,15.10
2022-09-11T18:01:54.158Z,15.50
2022-09-11T18:04:22.363Z,16.20
2022-09-11T18:06:50.397Z,16.60
2022-09-11T18:09:19.821Z,18.10
2022-09-11T18:11:48.791Z,20.73
2022-09-11T18:14:16.621Z,15.85
2022-09-11T18:16:45.275Z,18.52
2022-09-11T18:19:12.803Z,16.05
2022-09-11T18:21:40.313Z,19.17
2022-09-11T18:24:09.768Z,16.48
2022-09-11T18:26:42.114Z,16.08
2022-09-11T18:29:11.856Z,18.95
2022-09-11T18:31:40.502Z,16.10
2022-09-11T18:34:07.872Z,19.58
2022-09-11T18:36:35.424Z,17.63
2022-09-11T18:39:02.898Z,20.45
2022-09-11T18:41:31.424Z,20.35
2022-09-11T18:44:00.105Z,20.95
2022-09-11T18:46:27.450Z,24.27
2022-09-11T18:48:55.955Z,23.85
2022-09-11T18:51:23.329Z,26.73
2022-09-11T18:53:54.452Z,27.63
2022-09-11T18:58:50.659Z,23.73
2022-09-11T19:01:19.092Z,26.73
2022-09-11T19:03:47.164Z,27.02
2022-09-11T19:06:15.598Z,27.20
2022-09-11T19:08:44.498Z,27.27
2022-09-11T19:11:14.365Z,26.95
2022-09-11T19:13:42.741Z,28.23
2022-09-11T19:16:10.320Z,27.88
2022-09-11T19:18:42.044Z,29.20
2022-09-11T19:21:12.190Z,34.65
2022-09-11T19:23:40.546Z,35.05
2022-09-11T19:26:11.555Z,32.97
2022-09-11T19:28:41.007Z,38.25
2022-09-11T19:31:08.904Z,34.47
2022-09-11T19:33:37.089Z,36.38
2022-09-11T19:36:08.106Z,30.23
2022-09-11T19:38:40.158Z,31.60
2022-09-11T19:41:08.657Z,32.80
2022-09-11T19:43:36.331Z,34.75
2022-09-11T19:46:07.670Z,36.38
2022-09-11T19:48:37.880Z,37.90
2022-09-11T19:51:25.295Z,41.23
2022-09-11T19:53:56.117Z,46.45
2022-09-11T19:56:23.800Z,53.22
2022-09-11T19:58:51.423Z,51.17
2022-09-11T20:01:21.565Z,50.45
2022-09-11T20:03:49.049Z,50.08
2022-09-11T20:06:19.598Z,55.47
2022-09-11T20:08:48.202Z,52.78
2022-09-11T20:11:16.702Z,55.33
2022-09-11T20:13:44.068Z,52.30
2022-09-11T20:16:12.864Z,50.35
2022-09-11T20:18:40.003Z,49.03
2022-09-11T20:21:11.923Z,47.72
2022-09-11T20:23:40.274Z,39.03
2022-09-11T20:26:16.995Z,37.45
2022-09-11T20:28:45.109Z,38.40
2022-09-11T20:31:13.259Z,35.63
2022-09-11T20:33:40.734Z,35.30
2022-09-11T20:36:08.326Z,37.08
2022-09-11T20:38:35.780Z,38.47
2022-09-11T20:41:06.953Z,42.95
2022-09-11T20:46:01.665Z,38.40
2022-09-11T20:48:29.213Z,40.15
2022-09-11T20:50:56.581Z,36.83
2022-09-11T20:53:23.781Z,40.00
2022-09-11T20:55:50.941Z,34.95
2022-09-11T20:58:18.252Z,37.00
2022-09-11T21:00:46.611Z,37.65
2022-09-11T21:03:13.869Z,44.58
2022-09-11T21:05:41.208Z,38.15
2022-09-11T21:08:08.321Z,39.20
2022-09-11T21:10:36.304Z,39.25
2022-09-11T21:13:03.907Z,38.63
2022-09-11T21:15:31.084Z,36.22
2022-09-11T21:17:58.220Z,39.25
2022-09-11T21:20:25.530Z,39.13
2022-09-11T21:22:52.694Z,34.72
2022-09-11T21:25:19.792Z,35.53
2022-09-11T21:27:48.431Z,36.28
2022-09-11T21:30:15.596Z,34.22
2022-09-11T21:32:42.727Z,36.92
2022-09-11T21:35:10.092Z,39.10
2022-09-11T21:37:37.233Z,37.67
2022-09-11T21:40:05.516Z,40.88
2022-09-11T21:42:32.819Z,36.63
2022-09-11T21:44:59.929Z,37.72
2022-09-11T21:47:27.142Z,40.60
2022-09-11T21:49:54.669Z,39.55
2022-09-11T21:52:21.842Z,41.70
2022-09-11T21:54:51.093Z,37.92
2022-09-11T21:57:18.368Z,38.08
2022-09-11T21:59:45.480Z,40.65
2022-09-11T22:02:12.677Z,37.78
2022-09-11T22:04:40.001Z,38.20
2022-09-11T22:07:07.116Z,36.40
2022-09-11T22:09:34.310Z,40.00
2022-09-11T22:12:01.638Z,39.25
2022-09-11T22:14:28.784Z,36.85
2022-09-11T22:16:55.962Z,36.13
2022-09-11T22:19:23.208Z,40.28
2022-09-11T22:21:50.321Z,37.80
2022-09-11T22:24:19.550Z,36.15
2022-09-11T22:26:47.342Z,40.10
2022-09-11T22:29:14.485Z,38.67
2022-09-11T22:31:41.758Z,40.42
2022-09-11T22:34:09.738Z,37.58
2022-09-11T22:36:36.891Z,38.95
2022-09-11T22:39:05.288Z,39.53
2022-09-11T22:41:32.578Z,40.30
2022-09-11T22:43:59.776Z,37.67
2022-09-11T22:46:26.928Z,37.88
2022-09-11T22:48:54.181Z,37.88
2022-09-11T22:51:21.312Z,36.30
2022-09-11T22:53:48.496Z,36.80
2022-09-11T22:56:16.893Z,40.13
2022-09-11T22:58:44.207Z,36.95
2022-09-11T23:01:12.355Z,35.60
2022-09-11T23:03:39.700Z,42.78
2022-09-11T23:06:25.537Z,35.63
2022-09-11T23:08:52.822Z,34.88
2022-09-11T23:11:20.303Z,35.08
2022-09-11T23:13:49.035Z,39.13
2022-09-11T23:16:17.962Z,39.60
2022-09-11T23:18:45.266Z,36.47
2022-09-11T23:21:12.462Z,36.33
2022-09-11T23:23:44.926Z,40.80
2022-09-11T23:26:12.779Z,35.47
2022-09-11T23:28:40.138Z,35.25
2022-09-11T23:31:21.739Z,37.75
2022-09-11T23:33:49.180Z,36.33
2022-09-11T23:36:16.902Z,37.75
2022-09-11T23:38:44.859Z,35.10
2022-09-11T23:41:12.034Z,36.17
2022-09-11T23:43:39.181Z,36.20
2022-09-11T23:46:06.616Z,33.30
2022-09-11T23:48:33.910Z,35.05
2022-09-11T23:51:01.130Z,41.13
2022-09-11T23:53:28.825Z,36.22
2022-09-11T23:55:56.490Z,36.28
2022-09-11T23:58:23.737Z,38.10
